createdAt,value
2022-08-19T00:01:59.497Z,1.00
2022-08-19T00:04:32.680Z,0.90
2022-08-19T00:07:00.970Z,1.20
2022-08-19T00:09:29.219Z,1.20
2022-08-19T00:11:57.845Z,0.98
2022-08-19T00:14:26.721Z,1.33
2022-08-19T00:16:55.550Z,1.75
2022-08-19T00:19:24.210Z,1.20
2022-08-19T00:21:52.586Z,1.10
2022-08-19T00:24:20.807Z,1.48
2022-08-19T00:26:48.488Z,1.10
2022-08-19T00:29:19.199Z,1.00
2022-08-19T00:31:48.038Z,1.00
2022-08-19T00:34:18.328Z,1.33
2022-08-19T00:36:46.448Z,1.38
2022-08-19T00:39:15.096Z,1.23
2022-08-19T00:41:44.079Z,1.10
2022-08-19T00:44:17.126Z,0.93
2022-08-19T00:46:51.576Z,1.15
2022-08-19T00:49:26.122Z,1.23
2022-08-19T00:52:00.523Z,1.52
2022-08-19T00:54:31.171Z,0.93
2022-08-19T00:57:00.729Z,1.60
2022-08-19T00:59:56.298Z,1.20
2022-08-19T01:02:18.258Z,0.82
2022-08-19T01:04:46.072Z,1.15
2022-08-19T01:07:15.856Z,1.13
2022-08-19T01:09:47.776Z,1.00
2022-08-19T01:12:16.843Z,1.40
2022-08-19T01:14:45.867Z,1.63
2022-08-19T01:17:15.116Z,1.20
2022-08-19T01:19:44.802Z,1.05
2022-08-19T01:22:27.698Z,1.50
2022-08-19T01:24:58.330Z,0.90
2022-08-19T01:27:29.909Z,1.60
2022-08-19T01:30:06.894Z,1.20
2022-08-19T01:32:34.857Z,1.42
2022-08-19T01:35:03.757Z,1.30
2022-08-19T01:37:42.524Z,1.48
2022-08-19T01:40:11.055Z,1.67
2022-08-19T01:42:38.675Z,1.63
2022-08-19T01:45:08.551Z,1.80
2022-08-19T01:47:37.912Z,1.60
2022-08-19T01:50:08.761Z,1.48
2022-08-19T01:52:37.804Z,1.52
2022-08-19T01:55:07.805Z,1.17
2022-08-19T01:57:35.920Z,1.90
2022-08-19T02:00:08.512Z,1.40
2022-08-19T02:02:39.117Z,1.35
2022-08-19T02:05:10.683Z,1.63
2022-08-19T02:07:41.247Z,1.27
2022-08-19T02:10:13.511Z,1.88
2022-08-19T02:12:44.880Z,1.35
2022-08-19T02:15:13.046Z,1.73
2022-08-19T02:17:41.541Z,1.77
2022-08-19T02:20:09.806Z,1.92
2022-08-19T02:22:37.486Z,1.80
2022-08-19T02:25:05.947Z,1.58
2022-08-19T02:27:34.488Z,1.83
2022-08-19T02:30:02.710Z,2.45
2022-08-19T02:32:31.767Z,1.88
2022-08-19T02:34:59.404Z,1.58
2022-08-19T02:37:45.394Z,1.60
2022-08-19T02:40:13.481Z,1.55
2022-08-19T02:42:41.974Z,1.60
2022-08-19T02:45:10.331Z,2.08
2022-08-19T02:47:38.027Z,1.50
2022-08-19T02:50:06.111Z,2.30
2022-08-19T02:52:34.596Z,1.80
2022-08-19T02:55:02.978Z,1.73
2022-08-19T02:57:32.688Z,1.88
2022-08-19T03:00:00.461Z,1.33
2022-08-19T03:02:28.481Z,1.95
2022-08-19T03:04:56.088Z,1.75
2022-08-19T03:07:23.606Z,1.65
2022-08-19T03:09:51.218Z,1.50
2022-08-19T03:12:18.709Z,2.20
2022-08-19T03:14:47.601Z,1.60
2022-08-19T03:17:15.386Z,1.67
2022-08-19T03:19:44.153Z,1.52
2022-08-19T03:22:12.325Z,1.23
2022-08-19T03:24:41.523Z,1.27
2022-08-19T03:27:09.183Z,1.33
2022-08-19T03:29:43.087Z,2.05
2022-08-19T03:32:31.714Z,1.55
2022-08-19T03:34:59.663Z,1.85
2022-08-19T03:37:27.540Z,1.42
2022-08-19T03:39:55.227Z,1.55
2022-08-19T03:42:32.362Z,1.45
2022-08-19T03:45:06.489Z,1.42
2022-08-19T03:47:33.982Z,1.40
2022-08-19T03:50:01.639Z,1.35
2022-08-19T03:52:29.169Z,1.50
2022-08-19T03:54:56.832Z,1.52
2022-08-19T03:57:31.646Z,1.70
2022-08-19T04:00:13.165Z,1.30
2022-08-19T04:02:56.550Z,1.65
2022-08-19T04:05:29.886Z,1.45
2022-08-19T04:08:00.156Z,2.40
2022-08-19T04:10:29.300Z,2.08
2022-08-19T04:12:56.984Z,1.50
2022-08-19T04:15:24.560Z,1.98
2022-08-19T04:17:52.083Z,1.90
2022-08-19T04:20:19.700Z,1.75
2022-08-19T04:22:47.352Z,1.60
2022-08-19T04:25:14.951Z,1.83
2022-08-19T04:27:44.270Z,1.33
2022-08-19T04:30:12.480Z,2.15
2022-08-19T04:32:44.722Z,2.10
2022-08-19T04:35:16.818Z,1.52
2022-08-19T04:37:46.960Z,1.00
2022-08-19T04:40:32.976Z,2.55
2022-08-19T04:43:02.014Z,1.80
2022-08-19T04:45:29.544Z,1.60
2022-08-19T04:48:26.627Z,1.55
2022-08-19T04:51:00.119Z,2.00
2022-08-19T04:53:37.769Z,2.25
2022-08-19T04:56:12.644Z,2.38
2022-08-19T04:58:43.803Z,1.85
2022-08-19T05:01:18.370Z,2.28
2022-08-19T05:03:46.071Z,1.77
2022-08-19T05:06:16.451Z,1.73
2022-08-19T05:08:45.079Z,1.92
2022-08-19T05:11:26.544Z,1.90
2022-08-19T05:13:54.328Z,1.73
2022-08-19T05:16:23.553Z,2.33
2022-08-19T05:19:09.864Z,2.20
2022-08-19T05:21:56.570Z,2.15
2022-08-19T05:24:24.978Z,2.00
2022-08-19T05:26:57.458Z,1.75
2022-08-19T05:29:33.427Z,1.77
2022-08-19T05:32:06.182Z,1.98
2022-08-19T05:34:34.541Z,1.40
2022-08-19T05:37:03.907Z,1.50
2022-08-19T05:39:34.671Z,2.03
2022-08-19T05:42:09.935Z,1.88
2022-08-19T05:44:40.993Z,1.20
2022-08-19T05:47:09.497Z,2.17
2022-08-19T05:49:37.910Z,2.25
2022-08-19T05:52:07.500Z,1.60
2022-08-19T05:54:36.937Z,1.58
2022-08-19T05:57:04.578Z,1.80
2022-08-19T05:59:32.123Z,1.95
2022-08-19T06:02:00.599Z,2.28
2022-08-19T06:04:28.192Z,1.70
2022-08-19T06:06:57.403Z,2.45
2022-08-19T06:09:25.516Z,1.98
2022-08-19T06:11:56.250Z,1.70
2022-08-19T06:14:28.228Z,1.52
2022-08-19T06:16:56.863Z,2.67
2022-08-19T06:19:25.373Z,1.90
2022-08-19T06:21:53.864Z,1.75
2022-08-19T06:24:24.976Z,2.45
2022-08-19T06:26:57.941Z,2.13
2022-08-19T06:31:59.041Z,1.88
2022-08-19T06:34:29.196Z,1.95
2022-08-19T06:37:00.195Z,2.30
2022-08-19T06:39:30.196Z,2.65
2022-08-19T06:42:01.667Z,2.13
2022-08-19T06:44:35.401Z,2.10
2022-08-19T06:47:14.504Z,2.17
2022-08-19T06:49:43.216Z,1.83
2022-08-19T06:52:13.788Z,1.40
2022-08-19T06:54:55.773Z,1.85
2022-08-19T06:57:27.652Z,1.50
2022-08-19T06:59:57.583Z,2.22
2022-08-19T07:02:27.422Z,2.25
2022-08-19T07:04:55.212Z,1.92
2022-08-19T07:07:23.338Z,1.98
2022-08-19T07:09:59.388Z,2.10
2022-08-19T07:12:38.069Z,2.15
2022-08-19T07:15:09.577Z,1.80
2022-08-19T07:17:41.991Z,1.48
2022-08-19T07:20:11.143Z,1.92
2022-08-19T07:22:39.713Z,1.27
2022-08-19T07:25:10.060Z,1.67
2022-08-19T07:27:39.684Z,1.77
2022-08-19T07:30:24.168Z,1.38
2022-08-19T07:32:54.036Z,2.05
2022-08-19T07:35:21.664Z,1.90
2022-08-19T07:37:49.529Z,1.95
2022-08-19T07:40:17.267Z,1.38
2022-08-19T07:42:45.171Z,1.40
2022-08-19T07:45:12.819Z,1.98
2022-08-19T07:47:48.015Z,1.40
2022-08-19T07:50:20.455Z,1.60
2022-08-19T07:52:50.765Z,1.42
2022-08-19T07:55:41.708Z,1.35
2022-08-19T07:58:11.685Z,1.52
2022-08-19T08:00:40.013Z,1.70
2022-08-19T08:03:07.646Z,1.70
2022-08-19T08:05:54.284Z,1.42
2022-08-19T08:08:44.089Z,1.30
2022-08-19T08:11:20.598Z,1.42
2022-08-19T08:14:00.525Z,1.70
2022-08-19T08:16:32.250Z,1.13
2022-08-19T08:19:00.396Z,1.63
2022-08-19T08:21:28.931Z,1.65
2022-08-19T08:23:56.763Z,1.40
2022-08-19T08:26:26.056Z,1.48
2022-08-19T08:28:54.487Z,1.60
2022-08-19T08:31:22.176Z,1.45
2022-08-19T08:33:49.890Z,1.90
2022-08-19T08:36:18.289Z,1.85
2022-08-19T08:38:46.781Z,1.38
2022-08-19T08:41:55.042Z,1.13
2022-08-19T08:44:29.608Z,1.10
2022-08-19T08:47:02.737Z,1.63
2022-08-19T08:49:51.363Z,1.50
2022-08-19T08:52:32.121Z,1.40
2022-08-19T08:55:10.451Z,1.90
2022-08-19T08:57:44.393Z,1.55
2022-08-19T09:00:33.554Z,1.77
2022-08-19T09:03:03.037Z,1.50
2022-08-19T09:05:53.358Z,1.20
2022-08-19T09:08:38.077Z,1.38
2022-08-19T09:11:10.444Z,1.48
2022-08-19T09:14:06.011Z,1.48
2022-08-19T09:16:33.571Z,1.40
2022-08-19T09:19:07.064Z,1.70
2022-08-19T09:21:36.144Z,1.45
2022-08-19T09:24:05.541Z,1.15
2022-08-19T09:26:47.147Z,1.25
2022-08-19T09:29:16.333Z,1.13
2022-08-19T09:31:45.322Z,1.25
2022-08-19T09:34:21.106Z,1.20
2022-08-19T09:36:55.498Z,1.30
2022-08-19T09:39:23.686Z,1.30
2022-08-19T09:41:51.351Z,1.50
2022-08-19T09:44:21.953Z,1.10
2022-08-19T09:46:50.040Z,1.20
2022-08-19T09:49:19.478Z,1.00
2022-08-19T09:51:51.511Z,0.85
2022-08-19T09:54:23.548Z,1.30
2022-08-19T09:56:56.428Z,0.80
2022-08-19T09:59:24.112Z,1.00
2022-08-19T10:01:52.652Z,0.80
2022-08-19T10:04:22.441Z,1.00
2022-08-19T10:06:53.958Z,0.85
2022-08-19T10:09:26.272Z,1.08
2022-08-19T10:12:03.946Z,1.13
2022-08-19T10:14:32.149Z,1.23
2022-08-19T10:17:01.348Z,1.10
2022-08-19T10:19:55.151Z,1.10
2022-08-19T10:22:25.729Z,1.20
2022-08-19T10:24:54.673Z,1.20
2022-08-19T10:27:22.778Z,1.38
2022-08-19T10:29:50.452Z,0.90
2022-08-19T10:32:18.092Z,1.25
2022-08-19T10:34:48.471Z,1.20
2022-08-19T10:37:29.189Z,0.95
2022-08-19T10:40:00.554Z,1.55
2022-08-19T10:42:28.325Z,0.95
2022-08-19T10:44:55.971Z,1.52
2022-08-19T10:47:26.308Z,1.20
2022-08-19T10:50:18.767Z,1.33
2022-08-19T10:52:50.890Z,1.27
2022-08-19T10:55:42.887Z,1.40
2022-08-19T10:58:16.515Z,0.93
2022-08-19T11:00:44.839Z,1.42
2022-08-19T11:03:12.480Z,1.20
2022-08-19T11:05:40.768Z,1.40
2022-08-19T11:08:22.762Z,1.13
2022-08-19T11:10:56.349Z,1.02
2022-08-19T11:13:24.426Z,1.35
2022-08-19T11:16:07.410Z,1.20
2022-08-19T11:18:41.317Z,0.98
2022-08-19T11:21:21.180Z,1.05
2022-08-19T11:23:51.750Z,1.10
2022-08-19T11:26:21.759Z,1.00
2022-08-19T11:28:51.758Z,1.20
2022-08-19T11:31:21.041Z,1.30
2022-08-19T11:33:52.454Z,1.20
2022-08-19T11:36:21.957Z,1.00
2022-08-19T11:38:50.876Z,1.20
2022-08-19T11:41:20.667Z,1.25
2022-08-19T11:43:48.333Z,1.00
2022-08-19T11:46:17.414Z,1.20
2022-08-19T11:48:45.572Z,0.95
2022-08-19T11:51:16.728Z,1.00
2022-08-19T11:53:44.501Z,1.15
2022-08-19T11:56:12.717Z,0.93
2022-08-19T11:58:42.873Z,1.10
2022-08-19T12:01:13.316Z,0.82
2022-08-19T12:03:41.759Z,1.17
2022-08-19T12:06:14.224Z,0.90
2022-08-19T12:08:43.369Z,1.15
2022-08-19T12:11:13.227Z,1.30
2022-08-19T12:13:42.178Z,1.20
2022-08-19T12:16:13.311Z,1.40
2022-08-19T12:18:47.775Z,1.10
2022-08-19T12:21:17.096Z,1.00
2022-08-19T12:23:50.763Z,0.90
2022-08-19T12:26:20.344Z,1.30
2022-08-19T12:28:49.234Z,1.30
2022-08-19T12:31:17.392Z,1.23
2022-08-19T12:33:44.998Z,1.25
2022-08-19T12:36:16.504Z,1.10
2022-08-19T12:38:45.187Z,1.00
2022-08-19T12:41:15.507Z,1.60
2022-08-19T12:43:43.193Z,1.40
2022-08-19T12:46:11.881Z,1.30
2022-08-19T12:48:43.635Z,1.60
2022-08-19T12:51:14.367Z,1.50
2022-08-19T12:53:42.646Z,1.30
2022-08-19T12:56:12.752Z,1.10
2022-08-19T12:58:42.667Z,1.40
2022-08-19T13:01:22.057Z,1.05
2022-08-19T13:03:53.534Z,1.27
2022-08-19T13:06:21.532Z,1.20
2022-08-19T13:08:49.106Z,1.20
2022-08-19T13:11:20.064Z,1.40
2022-08-19T13:13:49.688Z,1.30
2022-08-19T13:16:17.661Z,1.52
2022-08-19T13:18:48.354Z,1.20
2022-08-19T13:21:16.388Z,1.25
2022-08-19T13:23:43.944Z,1.20
2022-08-19T13:26:13.812Z,1.60
2022-08-19T13:29:05.083Z,1.10
2022-08-19T13:31:53.923Z,1.33
2022-08-19T13:34:34.931Z,1.30
2022-08-19T13:37:04.265Z,1.30
2022-08-19T13:39:33.538Z,1.00
2022-08-19T13:42:02.046Z,1.10
2022-08-19T13:44:32.522Z,1.73
2022-08-19T13:47:07.882Z,1.20
2022-08-19T13:49:37.320Z,1.20
2022-08-19T13:52:06.630Z,1.17
2022-08-19T13:54:34.425Z,1.08
2022-08-19T13:57:02.076Z,1.50
2022-08-19T13:59:29.666Z,1.13
2022-08-19T14:02:01.840Z,1.52
2022-08-19T14:04:29.625Z,1.42
2022-08-19T14:06:57.315Z,1.20
2022-08-19T14:09:25.076Z,1.40
2022-08-19T14:11:52.596Z,1.27
2022-08-19T14:14:20.148Z,1.60
2022-08-19T14:16:47.757Z,1.70
2022-08-19T14:19:15.513Z,1.27
2022-08-19T14:21:43.259Z,1.27
2022-08-19T14:24:10.856Z,1.65
2022-08-19T14:26:39.478Z,1.05
2022-08-19T14:29:07.077Z,1.35
2022-08-19T14:31:34.600Z,1.52
2022-08-19T14:34:02.150Z,1.20
2022-08-19T14:36:29.682Z,1.42
2022-08-19T14:38:58.607Z,1.25
2022-08-19T14:41:27.419Z,1.30
2022-08-19T14:43:55.603Z,1.45
2022-08-19T14:46:26.356Z,1.42
2022-08-19T14:48:57.625Z,0.95
2022-08-19T14:51:27.887Z,1.15
2022-08-19T14:53:55.884Z,1.15
2022-08-19T14:56:26.618Z,1.30
2022-08-19T14:58:54.560Z,1.20
2022-08-19T15:01:23.623Z,1.27
2022-08-19T15:03:55.836Z,0.90
2022-08-19T15:06:25.442Z,1.38
2022-08-19T15:08:55.463Z,1.75
2022-08-19T15:11:27.497Z,1.92
2022-08-19T15:13:56.830Z,1.42
2022-08-19T15:16:26.156Z,1.20
2022-08-19T15:18:57.479Z,1.20
2022-08-19T15:21:27.279Z,1.10
2022-08-19T15:23:58.291Z,1.10
2022-08-19T15:26:33.288Z,1.13
2022-08-19T15:29:02.584Z,1.20
2022-08-19T15:31:38.202Z,0.80
2022-08-19T15:34:06.890Z,1.05
2022-08-19T15:36:36.111Z,1.30
2022-08-19T15:39:06.341Z,1.00
2022-08-19T15:41:36.972Z,1.02
2022-08-19T15:44:11.268Z,1.05
2022-08-19T15:46:41.175Z,0.88
2022-08-19T15:49:12.153Z,0.93
2022-08-19T15:51:42.007Z,1.02
2022-08-19T15:54:13.247Z,1.10
2022-08-19T15:56:59.560Z,1.10
2022-08-19T15:59:47.409Z,1.33
2022-08-19T16:02:37.039Z,1.23
2022-08-19T16:05:26.541Z,1.25
2022-08-19T16:07:54.759Z,1.35
2022-08-19T16:10:26.898Z,1.00
2022-08-19T16:12:57.936Z,0.98
2022-08-19T16:15:29.013Z,1.30
2022-08-19T16:17:58.062Z,1.20
2022-08-19T16:20:27.509Z,1.15
2022-08-19T16:22:58.292Z,0.90
2022-08-19T16:25:29.957Z,1.02
2022-08-19T16:28:06.321Z,0.95
2022-08-19T16:30:38.693Z,0.98
2022-08-19T16:33:07.163Z,1.10
2022-08-19T16:35:34.932Z,1.08
2022-08-19T16:38:02.789Z,1.10
2022-08-19T16:40:30.471Z,0.73
2022-08-19T16:42:58.911Z,0.80
2022-08-19T16:45:26.432Z,0.95
2022-08-19T16:47:54.091Z,0.80
2022-08-19T16:50:39.038Z,0.80
2022-08-19T16:53:09.913Z,0.85
2022-08-19T16:55:37.762Z,0.82
2022-08-19T16:58:05.604Z,1.10
2022-08-19T17:00:33.757Z,0.85
2022-08-19T17:03:14.629Z,0.90
2022-08-19T17:05:47.853Z,1.50
2022-08-19T17:08:19.665Z,0.95
2022-08-19T17:11:16.614Z,0.90
2022-08-19T17:13:38.438Z,1.13
2022-08-19T17:16:06.845Z,0.93
2022-08-19T17:18:34.527Z,1.00
2022-08-19T17:21:02.309Z,0.70
2022-08-19T17:23:43.152Z,0.93
2022-08-19T17:26:18.122Z,0.90
2022-08-19T17:28:49.818Z,0.90
2022-08-19T17:31:19.026Z,1.20
2022-08-19T17:33:48.751Z,1.10
2022-08-19T17:36:18.455Z,0.77
2022-08-19T17:38:46.022Z,1.02
2022-08-19T17:41:14.074Z,1.15
2022-08-19T17:43:43.771Z,0.90
2022-08-19T17:46:17.778Z,1.17
2022-08-19T17:48:52.911Z,1.20
2022-08-19T17:51:40.848Z,1.33
2022-08-19T17:54:13.008Z,1.20
2022-08-19T17:56:41.801Z,1.30
2022-08-19T17:59:14.035Z,1.20
2022-08-19T18:01:53.854Z,1.10
2022-08-19T18:04:25.061Z,1.10
2022-08-19T18:06:55.348Z,1.30
2022-08-19T18:09:38.609Z,1.10
2022-08-19T18:12:14.218Z,1.10
2022-08-19T18:14:42.385Z,0.93
2022-08-19T18:17:17.366Z,1.10
2022-08-19T18:19:47.133Z,1.00
2022-08-19T18:22:27.991Z,1.23
2022-08-19T18:24:57.847Z,1.08
2022-08-19T18:27:27.135Z,1.17
2022-08-19T18:29:59.395Z,1.08
2022-08-19T18:32:34.077Z,1.30
2022-08-19T18:35:04.982Z,1.00
2022-08-19T18:37:32.868Z,0.88
2022-08-19T18:40:18.788Z,1.23
2022-08-19T18:43:05.396Z,1.10
2022-08-19T18:48:37.455Z,1.20
2022-08-19T18:51:05.219Z,1.40
2022-08-19T18:53:34.836Z,1.10
2022-08-19T18:56:02.561Z,1.20
2022-08-19T18:58:34.409Z,1.23
2022-08-19T19:01:11.600Z,1.08
2022-08-19T19:03:45.376Z,1.05
2022-08-19T19:06:19.084Z,1.20
2022-08-19T19:08:48.345Z,1.00
2022-08-19T19:11:24.646Z,1.38
2022-08-19T19:13:53.570Z,1.30
2022-08-19T19:16:24.506Z,1.00
2022-08-19T19:18:52.953Z,1.08
2022-08-19T19:21:25.433Z,1.35
2022-08-19T19:23:56.856Z,1.20
2022-08-19T19:26:24.487Z,1.20
2022-08-19T19:28:52.137Z,1.00
2022-08-19T19:31:23.148Z,1.02
2022-08-19T19:33:50.776Z,0.90
2022-08-19T19:36:18.672Z,0.90
2022-08-19T19:38:48.924Z,1.33
2022-08-19T19:41:23.410Z,1.10
2022-08-19T19:44:09.865Z,0.95
2022-08-19T19:46:45.269Z,0.93
2022-08-19T19:49:13.881Z,0.90
2022-08-19T19:51:43.483Z,0.90
2022-08-19T19:54:14.711Z,1.00
2022-08-19T19:56:46.110Z,1.02
2022-08-19T19:59:13.715Z,1.00
2022-08-19T20:01:46.160Z,0.90
2022-08-19T20:04:16.316Z,1.42
2022-08-19T20:06:46.304Z,1.35
2022-08-19T20:09:19.516Z,1.30
2022-08-19T20:11:54.194Z,1.40
2022-08-19T20:14:38.586Z,1.02
2022-08-19T20:17:07.307Z,0.75
2022-08-19T20:19:36.798Z,1.30
2022-08-19T20:22:06.186Z,1.27
2022-08-19T20:24:36.230Z,1.17
2022-08-19T20:27:04.932Z,0.95
2022-08-19T20:29:39.623Z,1.40
2022-08-19T20:32:10.293Z,1.08
2022-08-19T20:34:41.488Z,0.82
2022-08-19T20:37:09.626Z,0.98
2022-08-19T20:39:38.267Z,1.02
2022-08-19T20:42:05.999Z,1.20
2022-08-19T20:44:33.829Z,1.42
2022-08-19T20:47:03.974Z,1.20
2022-08-19T20:49:32.488Z,1.35
2022-08-19T20:52:00.381Z,1.20
2022-08-19T20:54:28.065Z,1.25
2022-08-19T20:56:55.789Z,0.93
2022-08-19T20:59:24.310Z,1.40
2022-08-19T21:01:52.640Z,1.13
2022-08-19T21:04:21.925Z,1.10
2022-08-19T21:06:50.232Z,1.02
2022-08-19T21:09:18.157Z,1.33
2022-08-19T21:11:45.768Z,1.00
2022-08-19T21:14:13.455Z,1.17
2022-08-19T21:16:40.959Z,0.80
2022-08-19T21:19:08.571Z,1.10
2022-08-19T21:21:36.110Z,0.90
2022-08-19T21:24:04.465Z,0.90
2022-08-19T21:26:31.945Z,1.40
2022-08-19T21:28:59.452Z,1.10
2022-08-19T21:31:27.002Z,1.42
2022-08-19T21:33:54.640Z,1.13
2022-08-19T21:36:22.156Z,1.02
2022-08-19T21:38:49.686Z,1.10
2022-08-19T21:41:17.188Z,1.10
2022-08-19T21:43:44.779Z,1.30
2022-08-19T21:46:12.305Z,1.00
2022-08-19T21:48:39.899Z,1.02
2022-08-19T21:51:08.686Z,1.00
2022-08-19T21:53:37.139Z,1.38
2022-08-19T21:56:09.175Z,1.30
2022-08-19T21:58:36.732Z,1.23
2022-08-19T22:01:07.712Z,1.08
2022-08-19T22:03:37.385Z,1.00
2022-08-19T22:06:06.513Z,1.02
2022-08-19T22:08:34.071Z,1.10
2022-08-19T22:11:03.437Z,0.73
2022-08-19T22:13:39.898Z,0.70
2022-08-19T22:16:09.631Z,0.88
2022-08-19T22:18:37.389Z,1.10
2022-08-19T22:21:11.203Z,0.93
2022-08-19T22:23:41.125Z,0.82
2022-08-19T22:26:08.968Z,0.70
2022-08-19T22:28:37.044Z,0.70
2022-08-19T22:31:05.945Z,1.00
2022-08-19T22:33:34.087Z,0.80
2022-08-19T22:36:01.597Z,0.70
2022-08-19T22:38:29.246Z,0.85
2022-08-19T22:40:57.292Z,0.88
2022-08-19T22:43:30.081Z,0.90
2022-08-19T22:45:59.736Z,0.90
2022-08-19T22:48:29.652Z,0.98
2022-08-19T22:51:16.410Z,0.60
2022-08-19T22:53:46.709Z,0.68
2022-08-19T22:56:18.287Z,0.90
2022-08-19T22:58:47.079Z,0.52
2022-08-19T23:01:29.869Z,0.90
2022-08-19T23:03:59.867Z,0.70
2022-08-19T23:06:34.148Z,0.60
2022-08-19T23:09:05.354Z,0.60
2022-08-19T23:11:41.706Z,0.57
2022-08-19T23:14:11.398Z,0.68
2022-08-19T23:16:41.670Z,0.65
2022-08-19T23:19:10.555Z,0.57
2022-08-19T23:21:39.809Z,0.90
2022-08-19T23:24:07.740Z,0.80
2022-08-19T23:26:36.224Z,0.73
2022-08-19T23:29:24.043Z,0.77
2022-08-19T23:31:51.862Z,0.90
2022-08-19T23:34:19.455Z,0.80
2022-08-19T23:36:46.996Z,0.73
2022-08-19T23:39:14.514Z,1.08
2022-08-19T23:41:42.101Z,1.40
2022-08-19T23:44:14.676Z,0.60
2022-08-19T23:46:54.652Z,0.80
2022-08-19T23:49:24.842Z,1.00
2022-08-19T23:51:53.567Z,0.90
2022-08-19T23:54:21.456Z,1.13
2022-08-19T23:56:49.007Z,1.00
2022-08-19T23:59:16.679Z,0.90
